Terminal Aerodrome Forecast
Issued by NWS Bismarck, ND

Home | Current Version | Previous Version | Graphics & Text | Print | Product List | Glossary On
Versions: 1 2 3 4 5 6 7 8 9 10 11
206
FTUS43 KBIS 252321
TAFISN
TAF
KISN 252321Z 2600/2624 04008KT P6SM BKN035 OVC250
     FM260800 VRB03KT P6SM SCT040 BKN250
     FM261200 04004KT P6SM BKN150
     FM261800 08010KT P6SM SCT200=

USA.gov is the U.S. government's official web portal to all federal, state and local government web resources and services.